createdAt,value
2023-04-29T00:00:59.474Z,10.20
2023-04-29T00:05:00.481Z,10.30
2023-04-29T00:09:04.754Z,10.40
2023-04-29T00:13:05.372Z,10.40
2023-04-29T00:17:05.725Z,10.50
2023-04-29T00:21:06.376Z,10.50
2023-04-29T00:25:12.501Z,10.40
2023-04-29T00:29:14.023Z,10.30
2023-04-29T00:33:14.406Z,10.20
2023-04-29T00:37:14.711Z,10.10
2023-04-29T00:41:17.885Z,10.10
2023-04-29T00:45:18.118Z,10.00
2023-04-29T00:49:18.536Z,10.00
2023-04-29T00:53:19.219Z,9.80
2023-04-29T00:57:23.220Z,9.80
2023-04-29T01:01:23.974Z,9.70
2023-04-29T01:05:24.610Z,9.70
2023-04-29T01:09:51.062Z,9.80
2023-04-29T01:14:03.342Z,9.80
2023-04-29T01:18:13.346Z,9.80
2023-04-29T01:22:14.682Z,9.80
2023-04-29T01:26:17.607Z,9.80
2023-04-29T01:30:53.218Z,9.70
2023-04-29T01:35:04.381Z,9.70
2023-04-29T01:39:17.419Z,9.80
2023-04-29T01:43:28.058Z,9.80
2023-04-29T01:47:30.396Z,9.90
2023-04-29T01:51:31.364Z,9.90
2023-04-29T01:55:31.657Z,9.90
2023-04-29T01:59:51.082Z,9.90
2023-04-29T02:04:10.446Z,9.90
2023-04-29T02:08:11.573Z,9.90
2023-04-29T02:12:15.591Z,9.80
2023-04-29T02:16:19.756Z,9.80
2023-04-29T02:20:27.464Z,9.80
2023-04-29T02:24:27.822Z,9.90
2023-04-29T02:28:28.207Z,9.90
2023-04-29T02:32:31.498Z,10.00
2023-04-29T02:36:32.148Z,9.90
2023-04-29T02:40:32.983Z,9.90
2023-04-29T02:44:33.949Z,9.90
2023-04-29T02:48:37.980Z,9.90
2023-04-29T02:52:38.802Z,9.90
2023-04-29T02:56:40.066Z,9.90
2023-04-29T03:00:40.267Z,9.70
2023-04-29T03:04:46.992Z,9.60
2023-04-29T03:08:47.173Z,9.50
2023-04-29T03:12:47.905Z,9.40
2023-04-29T03:16:49.180Z,9.30
2023-04-29T03:20:52.012Z,9.20
2023-04-29T03:24:52.438Z,9.10
2023-04-29T03:28:54.289Z,9.10
2023-04-29T03:32:54.657Z,9.10
2023-04-29T03:36:58.401Z,9.10
2023-04-29T03:40:58.897Z,9.10
2023-04-29T03:44:59.234Z,9.10
2023-04-29T03:48:59.600Z,9.10
2023-04-29T03:53:02.507Z,9.10
2023-04-29T03:57:04.797Z,9.00
2023-04-29T04:01:05.508Z,9.00
2023-04-29T04:05:13.800Z,8.90
2023-04-29T04:09:21.115Z,8.80
2023-04-29T04:13:22.270Z,9.00
2023-04-29T04:17:22.723Z,9.20
2023-04-29T04:21:22.983Z,9.20
2023-04-29T04:25:35.914Z,9.20
2023-04-29T04:29:59.213Z,9.30
2023-04-29T04:34:04.464Z,9.40
2023-04-29T04:38:06.639Z,9.50
2023-04-29T04:42:09.697Z,9.40
2023-04-29T04:46:18.502Z,9.40
2023-04-29T04:50:36.965Z,9.30
2023-04-29T04:54:38.562Z,9.40
2023-04-29T04:58:57.276Z,9.40
2023-04-29T05:02:58.249Z,9.40
2023-04-29T05:06:58.799Z,9.50
2023-04-29T05:11:03.861Z,9.60
2023-04-29T05:15:07.494Z,9.80
2023-04-29T05:19:09.821Z,9.90
2023-04-29T05:23:13.065Z,10.00
2023-04-29T05:27:15.013Z,10.20
2023-04-29T05:31:18.491Z,10.40
2023-04-29T05:35:19.229Z,10.70
2023-04-29T05:39:19.737Z,10.80
2023-04-29T05:43:28.311Z,10.90
2023-04-29T05:47:32.825Z,10.90
2023-04-29T05:51:33.307Z,11.00
2023-04-29T05:55:33.532Z,11.20
2023-04-29T05:59:34.296Z,11.50
2023-04-29T06:03:42.036Z,11.80
2023-04-29T06:08:03.280Z,12.10
2023-04-29T06:12:18.490Z,12.40
2023-04-29T06:16:21.721Z,12.40
2023-04-29T06:20:25.132Z,12.50
2023-04-29T06:24:26.749Z,12.60
2023-04-29T06:28:26.932Z,12.80
2023-04-29T06:32:27.671Z,12.90
2023-04-29T06:36:30.726Z,13.00
2023-04-29T06:40:50.929Z,13.00
2023-04-29T06:45:11.697Z,13.00
2023-04-29T06:49:14.819Z,13.00
2023-04-29T06:53:17.711Z,13.00
2023-04-29T06:57:17.954Z,13.10
2023-04-29T07:01:19.756Z,13.40
2023-04-29T07:05:20.527Z,13.60
2023-04-29T07:09:23.949Z,13.70
2023-04-29T07:13:24.210Z,13.80
2023-04-29T07:17:24.427Z,14.10
2023-04-29T07:21:24.817Z,14.30
2023-04-29T07:25:29.622Z,14.50
2023-04-29T07:29:29.865Z,14.50
2023-04-29T07:33:31.059Z,14.40
2023-04-29T07:37:31.416Z,14.40
2023-04-29T07:41:34.369Z,14.40
2023-04-29T07:45:34.592Z,14.60
2023-04-29T07:49:35.850Z,14.60
2023-04-29T07:53:36.347Z,14.60
2023-04-29T07:57:39.121Z,14.60
2023-04-29T08:01:39.416Z,14.80
2023-04-29T08:05:40.014Z,14.80
2023-04-29T08:09:40.352Z,14.70
2023-04-29T08:13:45.925Z,15.00
2023-04-29T08:17:46.180Z,15.00
2023-04-29T08:21:46.479Z,14.70
2023-04-29T08:25:46.919Z,14.90
2023-04-29T08:29:49.680Z,14.90
2023-04-29T08:33:50.362Z,14.90
2023-04-29T08:37:50.612Z,15.00
2023-04-29T08:41:52.285Z,15.10
2023-04-29T08:45:56.147Z,14.90
2023-04-29T08:49:57.584Z,15.20
2023-04-29T08:53:59.556Z,15.30
2023-04-29T08:58:00.741Z,15.00
2023-04-29T09:02:04.241Z,15.40
2023-04-29T09:06:06.506Z,16.10
2023-04-29T09:10:12.362Z,17.10
2023-04-29T09:14:12.594Z,17.00
2023-04-29T09:18:15.280Z,16.40
2023-04-29T09:22:15.522Z,16.70
2023-04-29T09:26:17.422Z,16.60
2023-04-29T09:30:19.655Z,16.20
2023-04-29T09:34:35.967Z,15.90
2023-04-29T09:38:39.504Z,16.10
2023-04-29T09:42:46.625Z,16.20
2023-04-29T09:46:47.245Z,16.30
2023-04-29T09:51:05.031Z,16.20
2023-04-29T09:55:10.203Z,15.80
2023-04-29T09:59:12.188Z,15.50
2023-04-29T10:03:13.285Z,15.30
2023-04-29T10:07:19.285Z,15.40
2023-04-29T10:11:20.895Z,15.50
2023-04-29T10:15:30.741Z,15.80
2023-04-29T10:19:38.368Z,15.70
2023-04-29T10:23:42.582Z,15.80
2023-04-29T10:27:45.968Z,15.60
2023-04-29T10:31:47.716Z,15.60
2023-04-29T10:35:51.221Z,15.40
2023-04-29T10:40:04.421Z,15.10
2023-04-29T10:44:04.795Z,14.90
2023-04-29T10:48:22.130Z,14.60
2023-04-29T10:52:22.585Z,14.50
2023-04-29T10:56:25.426Z,14.80
2023-04-29T11:00:29.292Z,15.30
2023-04-29T11:04:29.492Z,15.60
2023-04-29T11:08:29.850Z,15.80
2023-04-29T11:12:32.707Z,15.90
2023-04-29T11:16:33.027Z,16.10
2023-04-29T11:20:33.340Z,16.70
2023-04-29T11:24:33.658Z,17.40
2023-04-29T11:28:36.992Z,18.20
2023-04-29T11:32:40.657Z,17.90
2023-04-29T11:36:40.987Z,17.80
2023-04-29T11:40:45.238Z,17.90
2023-04-29T11:44:48.815Z,17.60
2023-04-29T11:48:53.414Z,17.20
2023-04-29T11:52:53.768Z,17.00
2023-04-29T11:56:57.265Z,17.90
2023-04-29T12:01:01.973Z,18.30
2023-04-29T12:05:03.959Z,18.70
2023-04-29T12:09:04.679Z,18.80
2023-04-29T12:13:05.444Z,19.00
2023-04-29T12:17:09.708Z,18.60
2023-04-29T12:21:10.491Z,18.70
2023-04-29T12:25:12.652Z,18.40
2023-04-29T12:29:14.237Z,18.40
2023-04-29T12:33:22.847Z,18.40
2023-04-29T12:37:26.214Z,18.30
2023-04-29T12:41:40.861Z,17.60
2023-04-29T12:45:43.000Z,17.40
2023-04-29T12:49:50.304Z,17.70
2023-04-29T12:53:50.598Z,17.80
2023-04-29T12:57:50.734Z,17.80
2023-04-29T13:01:50.996Z,17.70
2023-04-29T13:05:55.129Z,17.30
2023-04-29T13:13:55.554Z,16.60
2023-04-29T13:17:56.364Z,16.30
2023-04-29T13:21:59.173Z,16.30
2023-04-29T13:25:59.444Z,16.40
2023-04-29T13:29:59.714Z,16.60
2023-04-29T13:33:59.899Z,16.40
2023-04-29T13:38:02.758Z,16.40
2023-04-29T13:42:04.290Z,16.40
2023-04-29T13:46:04.601Z,16.40
2023-04-29T13:54:50.203Z,16.40
2023-04-29T13:59:08.462Z,15.90
2023-04-29T14:06:54.801Z,15.30
2023-04-29T14:10:58.231Z,15.20
2023-04-29T14:15:00.097Z,15.10
2023-04-29T14:19:03.402Z,15.20
2023-04-29T14:23:04.101Z,15.50
2023-04-29T14:27:07.483Z,15.70
2023-04-29T14:31:07.784Z,15.90
2023-04-29T14:35:09.603Z,16.40
2023-04-29T14:39:09.716Z,17.10
2023-04-29T14:43:12.475Z,17.40
2023-04-29T14:47:12.847Z,17.50
2023-04-29T14:51:13.662Z,17.40
2023-04-29T14:55:13.829Z,17.50
2023-04-29T14:59:17.274Z,17.90
2023-04-29T15:03:22.600Z,18.50
2023-04-29T15:07:23.268Z,19.10
2023-04-29T15:11:24.368Z,19.10
2023-04-29T15:15:27.605Z,18.40
2023-04-29T15:19:27.874Z,18.10
2023-04-29T15:23:28.189Z,18.70
2023-04-29T15:27:28.478Z,19.00
2023-04-29T15:31:31.323Z,19.00
2023-04-29T15:35:31.872Z,18.60
2023-04-29T15:39:32.104Z,17.90
2023-04-29T15:43:33.705Z,17.40
2023-04-29T15:47:36.522Z,17.10
2023-04-29T15:51:36.779Z,17.00
2023-04-29T15:55:37.409Z,16.90
2023-04-29T15:59:37.585Z,16.80
2023-04-29T16:03:40.389Z,17.40
2023-04-29T16:07:40.725Z,17.30
2023-04-29T16:11:40.948Z,16.70
2023-04-29T16:15:41.404Z,16.40
2023-04-29T16:19:44.809Z,16.10
2023-04-29T16:23:45.099Z,15.80
2023-04-29T16:27:45.258Z,15.60
2023-04-29T16:31:45.527Z,15.30
2023-04-29T16:35:48.556Z,15.00
2023-04-29T16:39:49.193Z,14.80
2023-04-29T16:43:53.149Z,14.70
2023-04-29T16:47:54.763Z,14.60
2023-04-29T16:51:57.818Z,14.50
2023-04-29T16:55:58.290Z,14.40
2023-04-29T16:59:58.637Z,14.30
2023-04-29T17:03:59.605Z,14.30
2023-04-29T17:08:03.609Z,14.20
2023-04-29T17:12:04.319Z,14.10
2023-04-29T17:16:04.710Z,14.10
2023-04-29T17:20:05.139Z,14.00
2023-04-29T17:24:08.607Z,13.90
2023-04-29T17:28:09.054Z,13.90
2023-04-29T17:32:15.213Z,13.80
2023-04-29T17:36:15.539Z,13.80
2023-04-29T17:40:18.556Z,13.70
2023-04-29T17:44:20.580Z,13.60
2023-04-29T17:48:22.765Z,13.60
2023-04-29T17:52:23.842Z,13.40
2023-04-29T17:56:27.485Z,13.40
2023-04-29T18:00:28.248Z,13.30
2023-04-29T18:04:29.003Z,13.20
2023-04-29T18:08:29.501Z,13.10
2023-04-29T18:12:32.763Z,13.00
2023-04-29T18:16:33.308Z,12.90
2023-04-29T18:20:33.724Z,12.80
2023-04-29T18:24:34.019Z,12.70
2023-04-29T18:28:37.436Z,12.60
2023-04-29T18:32:37.751Z,12.60
2023-04-29T18:36:38.151Z,12.50
2023-04-29T18:40:39.039Z,12.50
2023-04-29T18:44:42.477Z,12.40
2023-04-29T18:48:42.885Z,12.40
2023-04-29T18:52:43.414Z,12.30
2023-04-29T18:56:44.114Z,12.20
2023-04-29T19:00:47.248Z,12.20
2023-04-29T19:04:47.586Z,12.10
2023-04-29T19:08:47.988Z,12.10
2023-04-29T19:12:48.322Z,12.00
2023-04-29T19:16:51.229Z,12.00
2023-04-29T19:20:53.715Z,12.00
2023-04-29T19:24:54.108Z,11.90
2023-04-29T19:28:54.383Z,11.90
2023-04-29T19:32:57.252Z,11.90
2023-04-29T19:36:57.594Z,11.90
2023-04-29T19:40:59.458Z,11.90
2023-04-29T19:45:00.084Z,11.90
2023-04-29T19:49:03.036Z,11.90
2023-04-29T19:53:03.640Z,11.90
2023-04-29T19:57:04.075Z,11.80
2023-04-29T20:01:05.243Z,11.80
2023-04-29T20:05:12.255Z,11.80
2023-04-29T20:09:14.635Z,11.70
2023-04-29T20:13:15.886Z,11.70
2023-04-29T20:17:17.352Z,11.60
2023-04-29T20:21:20.298Z,11.60
2023-04-29T20:25:20.748Z,11.40
2023-04-29T20:29:21.418Z,11.40
2023-04-29T20:33:21.824Z,11.40
2023-04-29T20:37:28.496Z,11.40
2023-04-29T20:41:30.725Z,11.30
2023-04-29T20:45:31.816Z,11.40
2023-04-29T20:49:32.352Z,11.30
2023-04-29T20:53:35.601Z,11.30
2023-04-29T20:57:36.468Z,11.20
2023-04-29T21:01:38.043Z,11.20
2023-04-29T21:05:38.983Z,11.20
2023-04-29T21:09:42.213Z,11.30
2023-04-29T21:13:42.881Z,11.20
2023-04-29T21:17:44.730Z,11.10
2023-04-29T21:21:45.411Z,11.00
2023-04-29T21:25:48.363Z,11.10
2023-04-29T21:29:48.822Z,11.10
2023-04-29T21:33:49.847Z,11.00
2023-04-29T21:37:50.393Z,11.00
2023-04-29T21:41:55.067Z,11.00
2023-04-29T21:45:57.404Z,10.90
2023-04-29T21:49:58.346Z,10.90
2023-04-29T21:53:58.614Z,10.80
2023-04-29T21:58:01.612Z,10.80
2023-04-29T22:02:04.370Z,10.70
2023-04-29T22:06:04.677Z,10.70
2023-04-29T22:10:05.102Z,10.70
2023-04-29T22:14:08.618Z,10.70
2023-04-29T22:18:08.931Z,10.60
2023-04-29T22:22:09.718Z,10.60
2023-04-29T22:26:09.965Z,10.60
2023-04-29T22:30:14.665Z,10.60
2023-04-29T22:34:15.134Z,10.50
2023-04-29T22:38:15.546Z,10.50
2023-04-29T22:42:16.090Z,10.40
2023-04-29T22:46:20.161Z,10.40
2023-04-29T22:50:22.046Z,10.40
2023-04-29T22:54:22.271Z,10.40
2023-04-29T22:58:24.728Z,10.40
2023-04-29T23:02:30.351Z,10.40
2023-04-29T23:06:30.971Z,10.40
2023-04-29T23:10:31.405Z,10.30
2023-04-29T23:14:31.669Z,10.30
2023-04-29T23:18:35.570Z,10.20
2023-04-29T23:22:36.243Z,10.20
2023-04-29T23:26:36.436Z,10.20
2023-04-29T23:30:36.632Z,10.20
2023-04-29T23:34:39.608Z,10.10
2023-04-29T23:38:40.867Z,10.10
2023-04-29T23:42:41.210Z,10.00
2023-04-29T23:46:42.031Z,10.00
2023-04-29T23:50:45.249Z,10.00
2023-04-29T23:54:45.776Z,10.00
2023-04-29T23:58:46.214Z,9.90
